createdAt,value
2023-02-28T00:02:33.019Z,97530.56
2023-02-28T00:05:30.603Z,97535.84
2023-02-28T00:08:28.045Z,97537.91
2023-02-28T00:11:24.868Z,97525.97
2023-02-28T00:14:21.718Z,97534.94
2023-02-28T00:17:18.866Z,97530.88
2023-02-28T00:20:16.967Z,97525.81
2023-02-28T00:23:13.828Z,97527.38
2023-02-28T00:26:10.762Z,97520.13
2023-02-28T00:29:07.591Z,97533.88
2023-02-28T00:32:05.940Z,97523.69
2023-02-28T00:35:03.570Z,97523.84
2023-02-28T00:38:00.486Z,97526.22
2023-02-28T00:40:57.306Z,97523.84
2023-02-28T00:43:54.128Z,97528.88
2023-02-28T00:46:50.944Z,97517.59
2023-02-28T00:49:47.781Z,97523.84
2023-02-28T00:52:45.789Z,97523.69
2023-02-28T00:55:42.641Z,97531.78
2023-02-28T00:58:39.479Z,97526.56
2023-02-28T01:01:36.694Z,97522.63
2023-02-28T01:04:33.858Z,97527.88
2023-02-28T01:07:30.691Z,97522.19
2023-02-28T01:10:32.250Z,97525.03
2023-02-28T01:13:29.090Z,97525.78
2023-02-28T01:16:26.436Z,97513.06
2023-02-28T01:19:23.294Z,97514.88
2023-02-28T01:22:20.100Z,97516.13
2023-02-28T01:25:17.097Z,97515.69
2023-02-28T01:28:14.180Z,97512.84
2023-02-28T01:31:11.499Z,97513.03
2023-02-28T01:34:08.367Z,97511.66
2023-02-28T01:37:05.365Z,97509.59
2023-02-28T01:40:02.198Z,97504.41
2023-02-28T01:42:59.014Z,97501.38
2023-02-28T01:45:58.186Z,97500.25
2023-02-28T01:49:16.254Z,97501.94
2023-02-28T01:52:19.061Z,97500.50
2023-02-28T01:55:19.406Z,97505.44
2023-02-28T01:58:17.000Z,97500.72
2023-02-28T02:01:22.220Z,97493.09
2023-02-28T02:04:20.314Z,97484.47
2023-02-28T02:07:18.115Z,97495.56
2023-02-28T02:10:30.764Z,97483.91
2023-02-28T02:14:12.133Z,97482.03
2023-02-28T02:17:29.276Z,97484.88
2023-02-28T02:21:17.835Z,97486.69
2023-02-28T02:24:49.867Z,97486.28
2023-02-28T02:28:05.709Z,97488.50
2023-02-28T02:31:34.029Z,97487.47
2023-02-28T02:35:12.752Z,97485.88
2023-02-28T02:39:32.379Z,97491.16
2023-02-28T02:42:51.782Z,97481.63
2023-02-28T02:46:03.282Z,97481.19
2023-02-28T02:49:05.303Z,97496.06
2023-02-28T02:52:07.685Z,97485.56
2023-02-28T02:55:06.663Z,97482.94
2023-02-28T02:58:09.334Z,97484.41
2023-02-28T03:01:06.606Z,97486.97
2023-02-28T03:04:23.977Z,97486.31
2023-02-28T03:07:20.954Z,97492.41
2023-02-28T03:10:53.329Z,97491.66
2023-02-28T03:14:24.283Z,97489.69
2023-02-28T03:17:41.926Z,97487.28
2023-02-28T03:21:16.933Z,97486.69
2023-02-28T03:25:06.188Z,97478.03
2023-02-28T03:28:38.636Z,97475.06
2023-02-28T03:31:45.663Z,97473.25
2023-02-28T03:34:55.123Z,97473.91
2023-02-28T03:38:01.535Z,97475.56
2023-02-28T03:41:31.618Z,97487.63
2023-02-28T03:44:36.503Z,97488.78
2023-02-28T03:47:58.082Z,97474.91
2023-02-28T03:51:00.574Z,97486.84
2023-02-28T03:54:10.736Z,97489.81
2023-02-28T03:57:19.630Z,97491.44
2023-02-28T04:00:32.443Z,97490.50
2023-02-28T04:03:29.325Z,97490.94
2023-02-28T04:06:26.692Z,97487.34
2023-02-28T04:09:23.505Z,97495.53
2023-02-28T04:12:20.384Z,97496.66
2023-02-28T04:15:17.232Z,97497.63
2023-02-28T04:18:14.125Z,97500.50
2023-02-28T04:21:11.984Z,97500.44
2023-02-28T04:24:15.205Z,97494.88
2023-02-28T04:27:12.194Z,97493.72
2023-02-28T04:30:10.033Z,97491.91
2023-02-28T04:33:07.181Z,97484.91
2023-02-28T04:36:09.300Z,97486.72
2023-02-28T04:39:06.125Z,97500.50
2023-02-28T04:42:03.009Z,97499.59
2023-02-28T04:44:59.832Z,97496.25
2023-02-28T04:47:56.650Z,97500.88
2023-02-28T04:50:53.654Z,97494.78
2023-02-28T04:53:50.582Z,97503.88
2023-02-28T04:56:49.485Z,97499.22
2023-02-28T04:59:46.404Z,97497.59
2023-02-28T05:02:43.634Z,97504.59
2023-02-28T05:05:40.770Z,97499.00
2023-02-28T05:08:38.325Z,97503.28
2023-02-28T05:11:36.888Z,97507.50
2023-02-28T05:14:33.933Z,97505.13
2023-02-28T05:17:30.889Z,97506.06
2023-02-28T05:20:27.814Z,97510.16
2023-02-28T05:23:25.012Z,97514.16
2023-02-28T05:26:22.754Z,97515.97
2023-02-28T05:29:23.629Z,97514.53
2023-02-28T05:32:20.591Z,97516.88
2023-02-28T05:35:17.669Z,97514.03
2023-02-28T05:38:14.657Z,97506.72
2023-02-28T05:41:12.621Z,97511.81
2023-02-28T05:44:10.056Z,97501.50
2023-02-28T05:47:06.948Z,97502.31
2023-02-28T05:50:05.807Z,97513.63
2023-02-28T05:53:03.210Z,97515.22
2023-02-28T05:56:00.412Z,97509.38
2023-02-28T05:58:57.438Z,97520.66
2023-02-28T06:01:54.421Z,97515.59
2023-02-28T06:04:51.374Z,97515.41
2023-02-28T06:07:48.278Z,97523.63
2023-02-28T06:10:46.031Z,97520.50
2023-02-28T06:13:42.921Z,97529.16
2023-02-28T06:16:39.798Z,97521.75
2023-02-28T06:19:42.406Z,97535.88
2023-02-28T06:22:40.221Z,97539.88
2023-02-28T06:25:37.306Z,97532.34
2023-02-28T06:28:34.362Z,97540.97
2023-02-28T06:31:31.897Z,97539.88
2023-02-28T06:34:29.084Z,97537.03
2023-02-28T06:37:29.001Z,97542.22
2023-02-28T06:40:25.950Z,97545.06
2023-02-28T06:43:24.402Z,97541.47
2023-02-28T06:46:21.637Z,97547.88
2023-02-28T06:49:19.038Z,97541.72
2023-02-28T06:52:16.456Z,97545.72
2023-02-28T06:55:13.875Z,97547.81
2023-02-28T06:58:16.587Z,97548.13
2023-02-28T07:01:15.107Z,97563.28
2023-02-28T07:04:11.961Z,97558.09
2023-02-28T07:07:08.812Z,97559.75
2023-02-28T07:10:06.123Z,97562.75
2023-02-28T07:13:04.379Z,97561.00
2023-02-28T07:16:05.260Z,97569.13
2023-02-28T07:19:02.130Z,97565.06
2023-02-28T07:21:59.153Z,97573.78
2023-02-28T07:24:55.978Z,97572.31
2023-02-28T07:27:52.880Z,97568.22
2023-02-28T07:30:49.719Z,97572.50
2023-02-28T07:33:47.172Z,97572.34
2023-02-28T07:36:44.003Z,97578.19
2023-02-28T07:39:43.196Z,97571.53
2023-02-28T07:42:41.685Z,97576.06
2023-02-28T07:45:38.506Z,97572.19
2023-02-28T07:48:35.457Z,97565.72
2023-02-28T07:51:33.541Z,97571.00
2023-02-28T07:54:30.634Z,97570.59
2023-02-28T07:57:27.569Z,97574.44
2023-02-28T08:00:25.151Z,97570.38
2023-02-28T08:03:24.122Z,97567.50
2023-02-28T08:06:24.029Z,97559.34
2023-02-28T08:09:21.125Z,97556.34
2023-02-28T08:12:18.008Z,97562.81
2023-02-28T08:15:14.887Z,97554.94
2023-02-28T08:18:11.734Z,97555.56
2023-02-28T08:21:10.709Z,97552.13
2023-02-28T08:24:07.874Z,97566.09
2023-02-28T08:27:04.742Z,97566.53
2023-02-28T08:30:01.577Z,97559.81
2023-02-28T08:32:58.591Z,97568.88
2023-02-28T08:35:57.484Z,97557.63
2023-02-28T08:38:54.369Z,97556.56
2023-02-28T08:42:02.091Z,97553.44
2023-02-28T08:45:04.228Z,97549.22
2023-02-28T08:48:01.088Z,97550.38
2023-02-28T08:51:08.066Z,97561.16
2023-02-28T08:54:05.549Z,97545.81
2023-02-28T08:57:03.120Z,97568.13
2023-02-28T08:59:59.962Z,97569.59
2023-02-28T09:02:56.808Z,97558.13
2023-02-28T09:05:59.635Z,97540.22
2023-02-28T09:09:05.198Z,97537.53
2023-02-28T09:12:03.033Z,97553.00
2023-02-28T09:14:59.891Z,97555.47
2023-02-28T09:17:56.722Z,97545.06
2023-02-28T09:20:53.869Z,97538.59
2023-02-28T09:23:52.334Z,97547.09
2023-02-28T09:26:56.809Z,97532.97
2023-02-28T09:30:00.284Z,97545.00
2023-02-28T09:32:57.455Z,97541.31
2023-02-28T09:36:04.793Z,97530.16
2023-02-28T09:39:02.099Z,97528.63
2023-02-28T09:41:59.142Z,97534.00
2023-02-28T09:44:58.982Z,97520.88
2023-02-28T09:48:05.351Z,97532.09
2023-02-28T09:51:31.746Z,97540.91
2023-02-28T09:54:33.993Z,97511.56
2023-02-28T09:57:41.110Z,97520.25
2023-02-28T10:00:41.444Z,97527.22
2023-02-28T10:04:08.801Z,97526.19
2023-02-28T10:07:36.572Z,97550.84
2023-02-28T10:10:45.113Z,97546.22
2023-02-28T10:14:06.870Z,97549.56
2023-02-28T10:17:15.637Z,97547.03
2023-02-28T10:20:20.553Z,97548.34
2023-02-28T10:23:36.496Z,97517.53
2023-02-28T10:26:34.135Z,97530.38
2023-02-28T10:29:33.896Z,97551.28
2023-02-28T10:32:37.099Z,97548.06
2023-02-28T10:35:34.822Z,97529.66
2023-02-28T10:38:37.862Z,97534.22
2023-02-28T10:41:37.271Z,97530.41
2023-02-28T10:44:34.166Z,97538.13
2023-02-28T10:47:31.219Z,97537.81
2023-02-28T10:50:43.522Z,97530.59
2023-02-28T10:54:01.054Z,97532.19
2023-02-28T10:57:19.263Z,97526.94
2023-02-28T11:00:23.852Z,97533.13
2023-02-28T11:03:33.512Z,97541.41
2023-02-28T11:06:33.971Z,97532.66
2023-02-28T11:09:36.201Z,97524.19
2023-02-28T11:12:52.304Z,97534.75
2023-02-28T11:15:59.932Z,97518.28
2023-02-28T11:18:58.305Z,97512.84
2023-02-28T11:22:02.710Z,97515.00
2023-02-28T11:25:07.591Z,97508.34
2023-02-28T11:28:39.079Z,97503.47
2023-02-28T11:31:35.958Z,97498.63
2023-02-28T11:34:33.940Z,97492.19
2023-02-28T11:37:32.859Z,97492.44
2023-02-28T11:40:39.410Z,97503.28
2023-02-28T11:44:12.088Z,97496.59
2023-02-28T11:47:38.524Z,97494.88
2023-02-28T11:50:46.350Z,97486.84
2023-02-28T11:54:36.772Z,97494.31
2023-02-28T11:58:21.601Z,97478.34
2023-02-28T12:01:40.338Z,97491.13
2023-02-28T12:05:07.848Z,97479.09
2023-02-28T12:08:22.049Z,97482.63
2023-02-28T12:11:59.853Z,97473.69
2023-02-28T12:15:46.707Z,97472.63
2023-02-28T12:19:35.153Z,97481.09
2023-02-28T12:23:07.209Z,97473.63
2023-02-28T12:26:26.049Z,97485.31
2023-02-28T12:29:43.479Z,97479.53
2023-02-28T12:32:50.230Z,97478.72
2023-02-28T12:35:58.743Z,97475.97
2023-02-28T12:39:05.468Z,97476.22
2023-02-28T12:42:30.505Z,97464.88
2023-02-28T12:45:44.106Z,97474.84
2023-02-28T12:49:02.967Z,97469.13
2023-02-28T12:52:02.772Z,97471.03
2023-02-28T12:55:47.553Z,97455.84
2023-02-28T12:58:51.083Z,97448.56
2023-02-28T13:02:28.574Z,97453.19
2023-02-28T13:06:11.345Z,97451.38
2023-02-28T13:09:17.969Z,97445.16
2023-02-28T13:12:17.538Z,97444.75
2023-02-28T13:15:22.826Z,97444.47
2023-02-28T13:18:46.724Z,97444.41
2023-02-28T13:21:45.901Z,97439.63
2023-02-28T13:25:01.176Z,97447.34
2023-02-28T13:28:01.804Z,97441.41
2023-02-28T13:31:00.668Z,97445.09
2023-02-28T13:34:00.584Z,97462.38
2023-02-28T13:37:18.848Z,97460.72
2023-02-28T13:40:24.292Z,97473.16
2023-02-28T13:43:34.616Z,97469.97
2023-02-28T13:46:54.726Z,97466.72
2023-02-28T13:49:52.826Z,97463.50
2023-02-28T13:53:44.853Z,97464.06
2023-02-28T13:57:13.607Z,97454.22
2023-02-28T14:00:28.881Z,97454.03
2023-02-28T14:04:11.579Z,97459.19
2023-02-28T14:07:10.934Z,97450.78
2023-02-28T14:10:16.872Z,97446.09
2023-02-28T14:13:48.239Z,97450.38
2023-02-28T14:16:47.930Z,97443.25
2023-02-28T14:19:51.006Z,97448.00
2023-02-28T14:23:05.648Z,97454.66
2023-02-28T14:26:11.554Z,97447.44
2023-02-28T14:29:53.565Z,97449.59
2023-02-28T14:33:35.840Z,97444.00
2023-02-28T14:36:42.610Z,97443.06
2023-02-28T14:39:44.706Z,97430.28
2023-02-28T14:42:56.575Z,97426.16
2023-02-28T14:46:07.071Z,97424.75
2023-02-28T14:49:08.196Z,97422.69
2023-02-28T14:52:10.913Z,97434.34
2023-02-28T14:55:17.637Z,97441.69
2023-02-28T14:58:27.602Z,97438.91
2023-02-28T15:01:26.829Z,97443.88
2023-02-28T15:04:28.545Z,97437.19
2023-02-28T15:07:29.572Z,97447.38
2023-02-28T15:10:28.625Z,97435.38
2023-02-28T15:13:41.656Z,97441.06
2023-02-28T15:16:43.418Z,97427.50
2023-02-28T15:19:45.663Z,97433.44
2023-02-28T15:22:43.697Z,97435.50
2023-02-28T15:25:42.097Z,97435.59
2023-02-28T15:28:39.077Z,97432.75
2023-02-28T15:31:56.478Z,97428.94
2023-02-28T15:34:55.215Z,97435.72
2023-02-28T15:38:17.519Z,97431.69
2023-02-28T15:41:31.198Z,97435.94
2023-02-28T15:44:35.384Z,97433.06
2023-02-28T15:47:33.667Z,97430.50
2023-02-28T15:50:31.930Z,97436.91
2023-02-28T15:53:38.244Z,97443.44
2023-02-28T15:56:43.814Z,97437.50
2023-02-28T15:59:46.330Z,97437.22
2023-02-28T16:02:45.609Z,97434.69
2023-02-28T16:05:42.847Z,97441.00
2023-02-28T16:08:39.852Z,97435.00
2023-02-28T16:11:43.054Z,97435.97
2023-02-28T16:14:41.308Z,97442.00
2023-02-28T16:17:40.564Z,97446.38
2023-02-28T16:20:37.778Z,97447.63
2023-02-28T16:23:34.618Z,97452.53
2023-02-28T16:26:31.731Z,97464.47
2023-02-28T16:29:33.193Z,97464.13
2023-02-28T16:32:30.913Z,97466.75
2023-02-28T16:35:27.948Z,97469.66
2023-02-28T16:38:25.923Z,97466.75
2023-02-28T16:41:27.180Z,97474.75
2023-02-28T16:44:35.064Z,97465.25
2023-02-28T16:47:33.791Z,97475.09
2023-02-28T16:50:33.593Z,97487.41
2023-02-28T16:53:30.435Z,97483.75
2023-02-28T16:56:27.340Z,97483.75
2023-02-28T16:59:27.352Z,97479.78
2023-02-28T17:02:24.425Z,97481.69
2023-02-28T17:05:22.075Z,97483.53
2023-02-28T17:08:19.599Z,97488.19
2023-02-28T17:11:17.176Z,97494.91
2023-02-28T17:14:14.438Z,97499.53
2023-02-28T17:17:22.047Z,97502.25
2023-02-28T17:20:25.739Z,97507.38
2023-02-28T17:23:22.660Z,97506.31
2023-02-28T17:26:22.180Z,97515.91
2023-02-28T17:29:22.537Z,97524.75
2023-02-28T17:32:20.018Z,97521.75
2023-02-28T17:35:17.833Z,97526.91
2023-02-28T17:38:20.449Z,97522.84
2023-02-28T17:41:17.387Z,97524.00
2023-02-28T17:44:14.207Z,97531.75
2023-02-28T17:47:13.715Z,97535.84
2023-02-28T17:50:21.221Z,97526.47
2023-02-28T17:53:18.038Z,97533.38
2023-02-28T17:56:26.755Z,97532.84
2023-02-28T17:59:23.605Z,97541.13
2023-02-28T18:02:20.503Z,97533.66
2023-02-28T18:05:17.448Z,97534.91
2023-02-28T18:08:15.493Z,97542.81
2023-02-28T18:11:18.297Z,97545.22
2023-02-28T18:14:16.499Z,97543.97
2023-02-28T18:17:13.502Z,97538.56
2023-02-28T18:20:11.718Z,97543.03
2023-02-28T18:23:08.567Z,97541.19
2023-02-28T18:26:09.089Z,97541.22
2023-02-28T18:29:07.186Z,97541.78
2023-02-28T18:32:06.005Z,97539.88
2023-02-28T18:35:02.876Z,97535.34
2023-02-28T18:37:59.870Z,97527.41
2023-02-28T18:41:00.979Z,97524.38
2023-02-28T18:43:58.811Z,97528.25
2023-02-28T18:46:56.648Z,97531.53
2023-02-28T18:49:53.659Z,97535.94
2023-02-28T18:52:51.377Z,97533.16
2023-02-28T18:55:48.567Z,97544.09
2023-02-28T18:58:45.448Z,97536.59
2023-02-28T19:01:42.748Z,97527.03
2023-02-28T19:04:42.040Z,97532.72
2023-02-28T19:07:39.211Z,97528.88
2023-02-28T19:10:41.773Z,97532.13
2023-02-28T19:13:39.003Z,97534.56
2023-02-28T19:16:36.286Z,97528.72
2023-02-28T19:19:33.189Z,97536.38
2023-02-28T19:22:30.038Z,97532.56
2023-02-28T19:25:26.920Z,97536.81
2023-02-28T19:28:24.623Z,97541.69
2023-02-28T19:31:25.848Z,97542.09
2023-02-28T19:34:22.794Z,97539.09
2023-02-28T19:37:19.640Z,97537.84
2023-02-28T19:40:17.189Z,97532.81
2023-02-28T19:43:14.118Z,97537.84
2023-02-28T19:46:12.386Z,97552.81
2023-02-28T19:49:09.263Z,97540.09
2023-02-28T19:52:06.224Z,97542.47
2023-02-28T19:55:03.198Z,97541.47
2023-02-28T19:58:00.022Z,97542.72
2023-02-28T20:00:57.206Z,97542.50
2023-02-28T20:03:54.049Z,97547.34
2023-02-28T20:06:51.402Z,97551.19
2023-02-28T20:09:48.877Z,97545.75
2023-02-28T20:12:45.695Z,97554.63
2023-02-28T20:15:42.528Z,97549.78
2023-02-28T20:18:41.097Z,97559.44
2023-02-28T20:21:37.946Z,97547.97
2023-02-28T20:24:34.762Z,97558.47
2023-02-28T20:27:32.693Z,97569.00
2023-02-28T20:30:29.766Z,97560.69
2023-02-28T20:33:26.686Z,97562.31
2023-02-28T20:36:23.616Z,97571.81
2023-02-28T20:39:21.872Z,97565.53
2023-02-28T20:42:19.826Z,97577.06
2023-02-28T20:45:16.726Z,97569.41
2023-02-28T20:48:13.541Z,97577.84
2023-02-28T20:51:11.373Z,97579.69
2023-02-28T20:54:11.110Z,97582.09
2023-02-28T20:57:07.974Z,97579.88
2023-02-28T21:00:12.065Z,97576.78
2023-02-28T21:03:08.909Z,97573.53
2023-02-28T21:06:06.350Z,97576.34
2023-02-28T21:09:08.591Z,97569.47
2023-02-28T21:12:05.607Z,97576.13
2023-02-28T21:15:02.424Z,97574.66
2023-02-28T21:17:59.449Z,97579.34
2023-02-28T21:21:09.311Z,97578.16
2023-02-28T21:24:06.968Z,97582.97
2023-02-28T21:27:03.925Z,97579.91
2023-02-28T21:30:00.780Z,97582.34
2023-02-28T21:32:57.968Z,97583.78
2023-02-28T21:36:05.596Z,97578.75
2023-02-28T21:39:08.245Z,97576.75
2023-02-28T21:42:05.104Z,97579.16
2023-02-28T21:45:03.032Z,97571.94
2023-02-28T21:47:59.853Z,97576.28
2023-02-28T21:50:58.751Z,97570.75
2023-02-28T21:53:58.918Z,97560.44
2023-02-28T21:56:55.967Z,97560.41
2023-02-28T21:59:52.905Z,97559.81
2023-02-28T22:02:49.782Z,97562.25
2023-02-28T22:05:46.700Z,97564.03
2023-02-28T22:08:47.274Z,97566.66
2023-02-28T22:11:44.100Z,97567.09
2023-02-28T22:14:41.640Z,97562.06
2023-02-28T22:17:38.512Z,97560.22
2023-02-28T22:20:35.327Z,97560.03
2023-02-28T22:23:33.185Z,97562.72
2023-02-28T22:26:30.998Z,97570.81
2023-02-28T22:29:28.253Z,97582.25
2023-02-28T22:32:25.115Z,97577.53
2023-02-28T22:35:22.169Z,97576.31
2023-02-28T22:38:19.842Z,97564.78
2023-02-28T22:41:18.332Z,97575.59
2023-02-28T22:44:16.375Z,97585.47
2023-02-28T22:47:13.314Z,97594.53
2023-02-28T22:50:11.305Z,97589.97
2023-02-28T22:53:08.160Z,97586.88
2023-02-28T22:56:06.267Z,97593.47
2023-02-28T22:59:03.789Z,97595.28
2023-02-28T23:02:00.662Z,97591.09
2023-02-28T23:04:57.500Z,97598.66
2023-02-28T23:07:54.331Z,97584.50
2023-02-28T23:10:51.961Z,97589.63
2023-02-28T23:13:58.389Z,97592.16
2023-02-28T23:16:55.509Z,97584.53
2023-02-28T23:19:52.392Z,97576.28
2023-02-28T23:22:50.638Z,97573.50
2023-02-28T23:25:47.511Z,97586.41
2023-02-28T23:28:44.390Z,97574.44
2023-02-28T23:31:42.191Z,97583.13
2023-02-28T23:34:39.032Z,97596.88
2023-02-28T23:37:38.338Z,97592.59
2023-02-28T23:40:35.165Z,97592.44
2023-02-28T23:43:31.999Z,97588.78
2023-02-28T23:46:29.306Z,97586.06
2023-02-28T23:49:26.290Z,97589.84
2023-02-28T23:52:23.308Z,97590.84
2023-02-28T23:55:20.619Z,97583.00
2023-02-28T23:58:17.481Z,97567.22
